Time;durP1;ratioP1;P1;durP2;ratioP2;P2;SDS_P1;SDS_P2;PMS_P1;PMS_P2;Temp;Humidity;BMP_temperature;BMP_pressure;BME280_temperature;BME280_humidity;BME280_pressure;Samples;Min_cycle;Max_cycle;Signal;HPM_P1;HPM_P2
2022/08/23 00:00:20;;;;;;;0.70;0.70;;;11.30;1.40;;;12.34;100.00;95334.01;647987;216;41460;-70
2022/08/23 00:03:01;;;;;;;0.80;0.80;;;11.20;1.40;;;12.28;100.00;95331.30;646543;216;31534;-70
2022/08/23 00:05:43;;;;;;;1.80;1.10;;;11.00;1.40;;;12.20;100.00;95336.84;645625;216;31511;-70
2022/08/23 00:08:25;;;;;;;1.23;1.12;;;10.90;1.40;;;12.01;100.00;95336.80;647070;216;42115;-72
2022/08/23 00:11:07;;;;;;;1.10;1.00;;;10.60;1.40;;;11.86;100.00;95333.99;646780;216;31504;-70
2022/08/23 00:13:48;;;;;;;1.50;1.40;;;10.40;1.40;;;11.84;100.00;95331.92;646578;216;32320;-70
2022/08/23 00:16:30;;;;;;;0.60;0.60;;;10.50;1.40;;;11.97;100.00;95337.39;637328;216;31714;-70
2022/08/23 00:19:12;;;;;;;0.97;0.93;;;10.80;1.40;;;12.08;100.00;95337.22;646096;216;31491;-70
2022/08/23 00:21:53;;;;;;;2.50;0.90;;;11.00;1.40;;;12.17;100.00;95336.28;646131;216;42715;-70
2022/08/23 00:24:35;;;;;;;0.47;0.43;;;10.90;1.40;;;12.16;100.00;95338.14;646892;216;32042;-70
2022/08/23 00:27:17;;;;;;;1.17;0.77;;;11.00;1.40;;;12.07;100.00;95344.53;646608;216;31483;-70
2022/08/23 00:29:58;;;;;;;0.40;0.30;;;10.80;1.40;;;12.09;100.00;95340.44;646399;216;42086;-70
2022/08/23 00:32:40;;;;;;;1.70;1.60;;;10.60;1.40;;;11.91;100.00;95332.94;645731;216;31512;-71
2022/08/23 00:35:51;;;;;;;0.70;0.60;;;10.30;1.40;;;11.76;100.00;95338.25;646808;216;31531;-70
2022/08/23 00:38:35;;;;;;;0.70;0.70;;;10.20;1.40;;;11.97;100.00;95321.58;646179;216;42167;-70
2022/08/23 00:41:17;;;;;;;0.80;0.80;;;10.30;1.40;;;11.71;100.00;95316.49;642036;216;37471;-70
2022/08/23 00:51:24;;;;;;;0.55;0.55;;;10.00;1.40;;;11.51;100.00;95315.11;646870;216;31517;-70
2022/08/23 00:54:06;;;;;;;0.90;0.80;;;9.90;1.40;;;11.34;100.00;95316.91;646419;216;31491;-70
2022/08/23 00:56:48;;;;;;;0.50;0.50;;;9.80;1.40;;;11.27;100.00;95314.54;645647;216;42700;-70
2022/08/23 00:59:29;;;;;;;0.40;0.30;;;9.80;1.40;;;11.21;100.00;95314.21;646832;216;31622;-70
2022/08/23 01:02:11;;;;;;;0.40;0.30;;;9.80;1.40;;;10.99;100.00;95312.92;646344;216;42122;-70
2022/08/23 01:04:54;;;;;;;0.52;0.52;;;9.70;1.40;;;10.89;100.00;95312.17;646567;216;31488;-70
2022/08/23 01:07:46;;;;;;;0.60;0.60;;;9.60;1.40;;;10.89;100.00;95313.89;645931;212;33833;-70
2022/08/23 01:10:30;;;;;;;1.00;0.60;;;9.50;1.40;;;10.90;100.00;95317.50;646501;216;31459;-70
2022/08/23 01:13:14;;;;;;;1.20;1.10;;;9.50;1.40;;;10.89;100.00;95325.83;646577;216;31495;-70
2022/08/23 01:16:00;;;;;;;0.40;0.30;;;9.40;1.40;;;10.75;100.00;95323.98;639806;216;33140;-70
2022/08/23 01:18:42;;;;;;;0.50;0.50;;;9.40;1.40;;;10.69;100.00;95321.19;645352;216;31503;-72
2022/08/23 01:21:26;;;;;;;0.68;0.68;;;9.40;1.40;;;10.80;100.00;95324.48;646662;212;31591;-70
2022/08/23 01:24:09;;;;;;;0.50;0.40;;;9.70;1.40;;;10.88;100.00;95320.26;631438;222;31708;-69
2022/08/23 01:26:49;;;;;;;0.40;0.30;;;9.70;1.40;;;10.97;100.00;95322.28;646340;212;32074;-70
2022/08/23 01:29:31;;;;;;;0.60;0.60;;;9.70;1.40;;;11.09;100.00;95325.95;647344;216;31523;-70
2022/08/23 01:32:13;;;;;;;1.17;0.70;;;9.70;1.40;;;10.97;100.00;95323.54;646956;212;31538;-69
2022/08/23 01:35:52;;;;;;;0.95;0.75;;;9.50;1.40;;;10.73;100.00;95323.75;645074;212;31530;-70
2022/08/23 01:38:34;;;;;;;1.30;0.73;;;9.30;1.40;;;10.81;100.00;95322.56;647046;216;31609;-70
2022/08/23 01:41:18;;;;;;;1.30;0.70;;;9.30;1.40;;;10.75;100.00;95326.11;619215;226;31913;-72
2022/08/23 01:44:00;;;;;;;0.50;0.50;;;9.30;1.40;;;10.66;100.00;95322.69;645763;212;31492;-70
2022/08/23 01:46:43;;;;;;;0.40;0.30;;;9.20;1.40;;;10.61;100.00;95327.34;647355;216;31619;-70
2022/08/23 01:49:25;;;;;;;0.70;0.50;;;9.10;1.40;;;10.59;100.00;95336.92;646494;212;32123;-70
2022/08/23 01:52:06;;;;;;;0.40;0.40;;;9.10;1.40;;;10.81;100.00;95331.35;619047;226;31829;-70
2022/08/23 01:54:48;;;;;;;0.97;0.87;;;9.20;1.40;;;10.81;100.00;95331.28;645261;216;31519;-70
2022/08/23 02:00:07;;;;;;;0.70;0.70;;;9.30;1.40;;;10.64;100.00;95335.52;646228;216;32068;-70
2022/08/23 02:02:50;;;;;;;0.70;0.70;;;9.10;1.40;;;10.55;100.00;95335.23;645844;216;31475;-71
2022/08/23 02:05:36;;;;;;;0.50;0.50;;;9.10;1.40;;;10.48;100.00;95335.70;618438;226;31874;-71
2022/08/23 02:11:11;;;;;;;1.10;0.60;;;9.00;1.40;;;10.43;100.00;95339.25;645377;216;32189;-71
2022/08/23 02:13:53;;;;;;;0.40;0.28;;;8.90;1.40;;;10.34;100.00;95340.41;646458;212;32078;-72
2022/08/23 02:16:35;;;;;;;0.40;0.30;;;8.90;1.40;;;10.25;100.00;95339.84;636887;212;31665;-70
2022/08/23 02:19:17;;;;;;;0.40;0.20;;;8.80;1.40;;;10.15;100.00;95340.88;645966;216;31506;-70
2022/08/23 02:21:59;;;;;;;0.70;0.70;;;8.60;1.40;;;9.99;100.00;95343.09;646059;215;31606;-70
2022/08/23 02:27:18;;;;;;;0.70;0.70;;;8.50;1.40;;;9.77;100.00;95345.59;646851;216;32074;-71
2022/08/23 02:29:59;;;;;;;0.67;0.67;;;8.40;1.40;;;9.71;100.00;95345.20;646660;216;31484;-70
2022/08/23 02:32:44;;;;;;;0.57;0.57;;;8.30;1.40;;;9.64;100.00;95346.62;646584;216;31514;-70
2022/08/23 02:35:52;;;;;;;0.68;0.57;;;8.20;1.40;;;9.64;100.00;95350.86;646074;212;32185;-70
2022/08/23 02:38:26;;;;;;;0.50;0.50;;;8.30;1.40;;;9.73;100.00;95349.34;641232;221;23499;-70
2022/08/23 02:41:08;;;;;;;0.40;0.40;;;8.40;1.40;;;9.69;100.00;95354.30;646100;212;31526;-70
2022/08/23 02:43:52;;;;;;;0.90;0.90;;;8.50;1.40;;;9.61;100.00;95358.38;646775;216;31553;-70
2022/08/23 02:46:33;;;;;;;0.63;0.63;;;8.50;1.40;;;9.62;100.00;95359.70;647001;216;31930;-70
2022/08/23 02:49:15;;;;;;;0.50;0.40;;;8.50;1.40;;;9.60;100.00;95362.83;647090;216;31582;-70
2022/08/23 02:51:56;;;;;;;0.40;0.40;;;8.40;1.40;;;9.68;100.00;95361.47;645213;216;31755;-69
2022/08/23 02:54:38;;;;;;;0.40;0.37;;;8.30;1.40;;;9.60;100.00;95359.47;646753;216;31480;-70
2022/08/23 02:57:20;;;;;;;0.83;0.73;;;8.20;1.40;;;9.59;100.00;95361.08;646032;216;31503;-70
2022/08/23 03:00:01;;;;;;;0.90;0.73;;;8.20;1.40;;;9.61;100.00;95365.20;647125;216;31527;-70
2022/08/23 03:02:44;;;;;;;0.57;0.57;;;8.10;1.40;;;9.64;100.00;95366.59;647451;216;31500;-70
2022/08/23 03:05:25;;;;;;;1.00;0.90;;;8.30;1.40;;;9.65;100.00;95370.47;647579;212;31718;-70
2022/08/23 03:08:07;;;;;;;0.60;0.60;;;8.30;1.40;;;9.57;100.00;95373.94;646542;216;31512;-70
2022/08/23 03:10:49;;;;;;;0.40;0.20;;;8.20;1.40;;;9.40;100.00;95380.83;619223;222;32017;-70
2022/08/23 03:13:30;;;;;;;1.10;1.00;;;8.00;1.40;;;9.34;100.00;95381.38;646574;216;31796;-70
2022/08/23 03:16:12;;;;;;;1.00;1.00;;;8.00;1.40;;;9.47;100.00;95384.11;638902;215;31661;-71
2022/08/23 03:18:54;;;;;;;0.70;0.40;;;8.20;1.40;;;9.39;100.00;95385.88;646675;216;31497;-70
2022/08/23 03:21:37;;;;;;;0.70;0.70;;;8.10;1.40;;;9.44;100.00;95381.84;647497;212;31490;-70
2022/08/23 03:24:17;;;;;;;0.68;0.43;;;8.20;1.40;;;9.60;100.00;95378.48;619766;226;31978;-70
2022/08/23 03:26:59;;;;;;;15.00;1.30;;;8.50;1.40;;;9.72;100.00;95382.18;646400;216;31530;-70
2022/08/23 03:29:41;;;;;;;0.80;0.80;;;8.60;1.40;;;9.79;100.00;95377.81;646017;212;31556;-70
2022/08/23 03:32:23;;;;;;;1.90;0.90;;;8.70;1.40;;;9.86;100.00;95378.88;645486;216;31529;-70
2022/08/23 03:35:50;;;;;;;0.80;0.52;;;8.80;1.40;;;9.85;100.00;95382.66;645661;212;42152;-69
2022/08/23 03:38:32;;;;;;;0.50;0.40;;;8.70;1.40;;;9.86;100.00;95390.58;645808;216;31947;-70
2022/08/23 03:41:14;;;;;;;0.80;0.80;;;8.80;1.40;;;9.87;100.00;95393.71;647055;216;31649;-72
2022/08/23 03:43:55;;;;;;;0.50;0.40;;;8.80;1.40;;;9.86;100.00;95394.70;644888;216;31510;-70
2022/08/23 03:46:41;;;;;;;0.47;0.47;;;8.70;1.40;;;9.80;100.00;95398.80;647271;213;31566;-71
2022/08/23 03:49:22;;;;;;;5.20;1.00;;;8.60;1.40;;;9.85;100.00;95398.91;647049;216;31703;-70
2022/08/23 03:52:06;;;;;;;0.50;0.50;;;8.60;1.40;;;9.73;100.00;95400.94;646349;212;32116;-70
2022/08/23 03:54:50;;;;;;;0.50;0.50;;;8.50;1.40;;;9.82;100.00;95403.31;646080;212;31506;-70
2022/08/23 03:57:32;;;;;;;1.10;1.00;;;8.60;1.40;;;9.89;100.00;95399.91;648011;216;42215;-71
2022/08/23 04:00:15;;;;;;;0.40;0.40;;;8.70;1.40;;;9.88;100.00;95399.48;646834;216;31500;-72
2022/08/23 04:02:57;;;;;;;4.30;0.70;;;8.60;1.40;;;9.98;100.00;95399.94;618808;226;32036;-70
2022/08/23 04:05:42;;;;;;;0.40;0.30;;;8.70;1.40;;;9.83;100.00;95398.57;646801;216;31497;-70
2022/08/23 04:08:24;;;;;;;0.43;0.30;;;8.50;1.40;;;9.74;100.00;95405.31;646390;216;31950;-70
2022/08/23 04:11:06;;;;;;;0.70;0.50;;;8.40;1.40;;;9.70;100.00;95409.87;647167;216;31507;-70
2022/08/23 04:16:24;;;;;;;0.73;0.73;;;8.40;1.40;;;9.54;100.00;95416.15;646443;216;31825;-70
2022/08/23 04:19:07;;;;;;;1.80;0.50;;;8.40;1.40;;;9.55;100.00;95416.03;645875;212;42922;-69
2022/08/23 04:21:49;;;;;;;0.70;0.70;;;8.30;1.40;;;9.55;100.00;95417.92;645624;216;31528;-70
2022/08/23 04:24:31;;;;;;;0.40;0.40;;;8.30;1.40;;;9.51;100.00;95418.17;646857;216;31675;-70
2022/08/23 04:27:13;;;;;;;0.40;0.40;;;8.20;1.40;;;9.48;100.00;95417.80;646282;216;31505;-69
2022/08/23 04:29:54;;;;;;;0.70;0.70;;;8.20;1.40;;;9.46;100.00;95416.92;647568;216;31533;-70
2022/08/23 04:32:36;;;;;;;0.40;0.40;;;8.10;1.40;;;9.46;100.00;95418.76;646299;216;32967;-70
2022/08/23 04:35:54;;;;;;;0.40;0.20;;;8.20;1.40;;;9.68;100.00;95417.92;645963;212;32106;-69
2022/08/23 04:38:36;;;;;;;0.80;0.80;;;8.60;1.40;;;9.80;100.00;95419.16;646943;216;31568;-73
2022/08/23 04:44:08;;;;;;;0.90;0.90;;;8.60;1.40;;;9.84;100.00;95414.03;648138;216;31537;-70
2022/08/23 04:46:50;;;;;;;0.50;0.50;;;8.80;1.40;;;9.91;100.00;95420.59;645627;212;31492;-72
2022/08/23 04:49:34;;;;;;;0.40;0.40;;;8.80;1.40;;;9.99;100.00;95417.56;646396;216;31596;-72
2022/08/23 04:52:16;;;;;;;0.70;0.70;;;8.90;1.40;;;10.01;100.00;95419.58;645975;216;31512;-72
2022/08/23 04:55:01;;;;;;;0.60;0.60;;;8.90;1.40;;;10.11;100.00;95421.52;646650;216;32113;-73
2022/08/23 04:57:43;;;;;;;0.50;0.50;;;8.90;1.40;;;10.24;100.00;95426.95;645501;212;31510;-71
2022/08/23 05:00:26;;;;;;;0.80;0.80;;;9.00;1.40;;;10.28;100.00;95422.05;646158;212;31616;-70
2022/08/23 05:03:11;;;;;;;0.70;0.70;;;9.00;1.40;;;10.25;100.00;95426.92;645527;216;31656;-71
2022/08/23 05:05:53;;;;;;;0.50;0.47;;;8.90;1.40;;;10.14;100.00;95426.38;646015;212;32036;-73
2022/08/23 05:08:34;;;;;;;0.50;0.50;;;8.80;1.40;;;10.15;100.00;95434.56;646175;212;31960;-71
2022/08/23 05:11:19;;;;;;;1.50;1.40;;;8.80;1.40;;;10.16;100.00;95433.50;645709;216;32078;-70
2022/08/23 05:14:01;;;;;;;0.50;0.50;;;8.90;1.40;;;10.35;100.00;95438.64;618743;226;42589;-73
2022/08/23 05:16:46;;;;;;;1.90;0.80;;;9.10;1.40;;;10.45;100.00;95444.16;635168;216;32286;-70
2022/08/23 05:19:28;;;;;;;0.40;0.22;;;9.20;1.40;;;10.60;100.00;95446.05;619626;226;32021;-70
2022/08/23 05:22:09;;;;;;;0.90;0.90;;;9.50;1.40;;;10.79;100.00;95448.94;645665;216;31503;-70
2022/08/23 05:24:51;;;;;;;1.07;0.93;;;9.80;1.40;;;10.97;100.00;95450.20;646495;216;31510;-70
2022/08/23 05:27:33;;;;;;;0.40;0.20;;;9.90;1.40;;;11.14;100.00;95449.07;644934;216;31362;-70
2022/08/23 05:30:14;;;;;;;0.80;0.80;;;10.00;1.40;;;11.26;100.00;95456.25;646954;216;31609;-69
2022/08/23 05:32:59;;;;;;;0.70;0.70;;;10.10;1.40;;;11.40;100.00;95458.42;646529;216;32041;-70
2022/08/23 05:35:51;;;;;;;1.10;1.00;;;10.30;1.40;;;11.54;100.00;95462.60;646096;216;32125;-70
2022/08/23 05:38:33;;;;;;;1.10;1.00;;;10.50;1.40;;;11.67;100.00;95466.81;645871;212;31527;-70
2022/08/23 05:41:14;;;;;;;0.60;0.60;;;10.60;1.40;;;11.83;100.00;95467.92;646185;212;31561;-70
2022/08/23 05:43:56;;;;;;;0.90;0.90;;;10.80;1.40;;;12.06;100.00;95470.22;645636;216;31515;-70
2022/08/23 05:46:40;;;;;;;0.67;0.67;;;11.10;1.40;;;12.26;100.00;95472.84;647306;212;31485;-69
2022/08/23 05:49:23;;;;;;;0.67;0.67;;;11.30;1.40;;;12.44;100.00;95469.00;646566;216;42161;-69
2022/08/23 05:52:08;;;;;;;0.50;0.50;;;11.50;1.40;;;12.56;100.00;95478.73;645279;216;31805;-69
2022/08/23 05:54:50;;;;;;;1.47;0.73;;;11.50;1.40;;;12.64;100.00;95480.80;619736;226;31839;-69
2022/08/23 05:57:31;;;;;;;0.70;0.60;;;11.50;1.40;;;12.73;100.00;95489.54;644669;216;31527;-68
2022/08/23 06:00:14;;;;;;;0.40;0.40;;;11.50;1.40;;;12.87;100.00;95490.55;646141;216;42412;-69
2022/08/23 06:02:55;;;;;;;1.30;1.20;;;11.50;1.40;;;13.04;100.00;95494.53;645923;216;31675;-69
2022/08/23 06:05:40;;;;;;;1.10;0.80;;;11.80;1.40;;;13.17;100.00;95497.65;646073;216;31559;-68
2022/08/23 06:08:21;;;;;;;0.80;0.80;;;12.00;1.40;;;13.32;100.00;95493.75;646089;216;35191;-69
2022/08/23 06:11:03;;;;;;;0.70;0.70;;;12.30;1.40;;;13.51;100.00;95494.70;646281;216;33352;-68
2022/08/23 06:13:45;;;;;;;1.30;1.20;;;12.60;1.40;;;13.69;100.00;95494.36;645919;216;31572;-69
2022/08/23 06:16:27;;;;;;;1.00;0.90;;;12.60;1.40;;;13.84;100.00;95501.64;637429;216;31741;-70
2022/08/23 06:19:09;;;;;;;1.10;0.83;;;12.60;1.40;;;13.92;100.00;95499.97;646002;212;31523;-69
2022/08/23 06:21:51;;;;;;;0.70;0.70;;;12.70;1.40;;;14.07;100.00;95502.77;646798;216;32537;-69
2022/08/23 06:24:32;;;;;;;1.30;1.00;;;12.80;1.40;;;14.25;100.00;95500.58;646539;216;31892;-69
2022/08/23 06:27:14;;;;;;;1.10;1.00;;;13.10;1.40;;;14.48;100.00;95503.11;644489;216;40434;-68
2022/08/23 06:29:56;;;;;;;1.77;1.00;;;13.50;1.40;;;14.62;100.00;95511.17;645797;216;31876;-69
2022/08/23 06:32:38;;;;;;;0.85;0.85;;;13.60;1.40;;;14.71;100.00;95511.05;647619;216;32122;-71
2022/08/23 06:35:51;;;;;;;7.10;1.80;;;13.70;1.40;;;14.91;100.00;95506.83;644640;216;31481;-70
2022/08/23 06:38:33;;;;;;;0.90;0.90;;;13.90;1.40;;;14.98;100.00;95509.06;646487;216;31513;-69
2022/08/23 06:43:49;;;;;;;1.30;1.20;;;13.90;1.40;;;15.11;100.00;95503.84;647285;212;32171;-69
2022/08/23 06:46:31;;;;;;;1.40;1.10;;;14.00;1.40;;;15.22;100.00;95502.77;645365;216;42193;-69
2022/08/23 06:49:13;;;;;;;2.80;1.60;;;14.10;1.40;;;15.42;100.00;95506.86;646625;216;31553;-69
2022/08/23 06:51:55;;;;;;;1.42;1.30;;;14.30;1.40;;;15.62;100.00;95507.34;646698;216;32083;-69
2022/08/23 06:54:37;;;;;;;6.65;2.40;;;14.50;1.40;;;15.72;100.00;95505.83;619333;226;31855;-68
2022/08/23 06:57:21;;;;;;;1.40;1.30;;;14.60;1.40;;;15.98;100.00;95507.53;645554;216;32033;-69
2022/08/23 07:00:04;;;;;;;4.22;1.52;;;14.80;1.40;;;16.04;100.00;95509.59;646310;216;31576;-70
2022/08/23 07:02:46;;;;;;;2.10;1.52;;;14.90;1.40;;;16.27;100.00;95506.96;646100;216;31654;-69
2022/08/23 07:05:27;;;;;;;1.50;1.40;;;15.10;1.40;;;16.46;100.00;95510.38;618461;226;31835;-69
2022/08/23 07:08:09;;;;;;;1.42;1.33;;;15.40;1.40;;;16.64;100.00;95518.23;647073;212;31526;-69
2022/08/23 07:10:51;;;;;;;1.52;1.42;;;15.60;1.40;;;16.70;100.00;95514.28;645543;216;31575;-69
2022/08/23 07:13:36;;;;;;;1.80;1.52;;;15.60;1.40;;;16.77;100.00;95507.52;645957;216;31510;-69
2022/08/23 07:16:18;;;;;;;1.40;1.20;;;15.70;1.40;;;16.93;100.00;95512.24;637813;212;31727;-69
2022/08/23 07:18:59;;;;;;;1.50;1.40;;;15.90;1.40;;;17.12;100.00;95513.98;647655;212;31493;-69
2022/08/23 07:21:41;;;;;;;1.50;1.40;;;16.10;1.40;;;17.26;100.00;95510.70;646704;216;31528;-69
2022/08/23 07:24:23;;;;;;;3.55;1.12;;;16.20;1.40;;;17.53;100.00;95515.91;647477;216;31558;-69
2022/08/23 07:27:08;;;;;;;1.50;1.40;;;16.50;1.40;;;17.69;100.00;95514.28;646005;216;31555;-69
2022/08/23 07:29:48;;;;;;;1.77;1.40;;;16.60;1.40;;;17.82;100.00;95519.66;645621;216;31528;-69
2022/08/23 07:32:29;;;;;;;1.70;1.30;;;16.70;1.40;;;17.87;100.00;95515.97;645996;216;31548;-70
2022/08/23 07:35:52;;;;;;;1.90;1.10;;;16.80;1.40;;;18.02;100.00;95521.21;646304;216;31616;-70
2022/08/23 07:38:34;;;;;;;1.50;1.40;;;16.90;1.40;;;18.08;100.00;95520.03;647300;216;32230;-72
2022/08/23 07:41:16;;;;;;;4.47;1.37;;;17.00;1.40;;;18.27;100.00;95523.70;646062;212;32752;-69
2022/08/23 07:44:01;;;;;;;1.73;1.20;;;17.20;1.40;;;18.56;100.00;95528.71;645779;212;31601;-69
2022/08/23 07:46:41;;;;;;;1.70;1.33;;;17.50;1.40;;;18.75;100.00;95530.57;644621;212;31540;-70
2022/08/23 07:49:24;;;;;;;4.47;1.90;;;17.50;1.40;;;18.87;100.00;95529.05;645803;216;31522;-69
2022/08/23 07:57:18;;;;;;;3.78;1.87;;;18.00;1.40;;;19.36;100.00;95539.84;645285;216;31686;-70
2022/08/23 08:00:00;;;;;;;1.70;1.45;;;18.10;1.40;;;19.31;100.00;95541.19;646282;216;31697;-69
2022/08/23 08:02:42;;;;;;;2.00;1.50;;;18.10;1.40;;;19.48;100.00;95545.98;646536;216;31925;-69
2022/08/23 08:05:23;;;;;;;1.98;1.60;;;18.20;1.40;;;19.59;100.00;95548.17;646597;216;31548;-69
2022/08/23 08:08:06;;;;;;;1.30;1.20;;;18.50;1.40;;;19.59;100.00;95551.30;645876;216;31555;-69
2022/08/23 08:10:50;;;;;;;1.48;1.37;;;18.50;1.40;;;19.86;100.00;95552.64;647654;216;31579;-69
2022/08/23 08:13:33;;;;;;;2.33;1.83;;;18.70;1.40;;;20.09;100.00;95550.19;646601;216;31761;-69
2022/08/23 08:16:29;;;;;;;1.20;1.10;;;18.90;1.40;;;20.19;100.00;95551.30;646186;216;31523;-69
2022/08/23 08:19:11;;;;;;;1.67;1.58;;;18.90;1.40;;;20.39;100.00;95553.27;646202;216;31507;-69
2022/08/23 08:21:56;;;;;;;4.40;1.67;;;19.00;1.40;;;20.54;100.00;95551.73;647408;212;31484;-69
2022/08/23 08:24:37;;;;;;;1.87;1.77;;;19.40;1.40;;;20.62;100.00;95554.58;619199;226;31854;-70
2022/08/23 08:27:20;;;;;;;1.58;1.48;;;19.40;1.40;;;20.66;100.00;95556.36;646399;212;31536;-69
2022/08/23 08:30:02;;;;;;;1.40;1.17;;;19.50;1.40;;;20.87;100.00;95557.09;646670;212;31533;-69
2022/08/23 08:32:45;;;;;;;1.70;1.30;;;19.60;1.40;;;20.94;99.45;95553.40;645799;216;31940;-69
2022/08/23 08:35:51;;;;;;;3.47;1.42;;;19.80;1.40;;;21.21;99.10;95557.31;646653;216;31748;-69
2022/08/23 08:38:33;;;;;;;2.17;1.60;;;20.10;1.40;;;21.33;95.23;95557.78;619551;226;42528;-70
2022/08/23 08:41:16;;;;;;;1.27;1.17;;;20.10;1.40;;;21.23;91.32;95559.48;646527;216;42150;-69
2022/08/23 08:46:41;;;;;;;1.20;1.10;;;20.50;1.40;;;21.80;90.76;95563.02;645856;216;32167;-69
2022/08/23 08:49:36;;;;;;;1.10;0.90;;;20.70;1.40;;;22.19;90.46;95562.56;645587;216;31538;-70
2022/08/23 08:52:23;;;;;;;2.50;1.48;;;21.00;1.40;;;22.33;89.28;95561.09;646688;216;31596;-70
2022/08/23 08:55:11;;;;;;;1.40;1.30;;;21.20;1.40;;;22.46;86.92;95560.14;646073;216;31618;-70
2022/08/23 09:00:32;;;;;;;2.20;1.30;;;21.30;1.40;;;22.90;86.23;95561.61;646742;212;31975;-70
2022/08/23 09:05:48;;;;;;;1.90;1.77;;;24.10;1.40;;;25.20;68.27;95558.03;646030;214;32171;-70
2022/08/23 09:08:54;;;;;;;3.60;1.60;;;27.20;1.40;;;27.15;63.78;95557.33;646285;216;31511;-70
2022/08/23 09:11:40;;;;;;;2.30;1.40;;;28.30;1.40;;;29.07;57.88;95550.41;646469;216;31529;-70
2022/08/23 09:14:37;;;;;;;1.20;1.10;;;30.30;1.40;;;29.14;51.81;95551.57;641220;217;31532;-70
2022/08/23 09:17:25;;;;;;;2.85;1.60;;;30.20;1.40;;;30.63;54.94;95548.01;644760;215;31593;-70
2022/08/23 09:20:06;;;;;;;2.10;1.60;;;31.20;99.90;;;32.85;49.53;95541.81;647222;216;32320;-71
2022/08/23 09:22:50;;;;;;;3.25;1.30;;;31.90;99.90;;;32.91;46.66;95547.16;646408;216;32402;-71
2022/08/23 09:25:30;;;;;;;1.77;1.10;;;32.40;99.90;;;33.44;44.95;95542.56;646857;216;31753;-71
2022/08/23 09:28:15;;;;;;;1.07;1.00;;;32.80;1.00;;;34.13;49.18;95541.81;646118;216;32079;-71
2022/08/23 09:30:56;;;;;;;2.20;1.00;;;33.20;99.90;;;32.53;44.34;95541.89;646755;216;34555;-71
2022/08/23 09:36:19;;;;;;;2.20;1.35;;;33.10;99.90;;;36.35;44.96;95539.00;647433;212;31603;-71
2022/08/23 09:39:01;;;;;;;2.37;1.20;;;34.80;99.90;;;36.04;38.83;95540.78;645111;216;31653;-72
2022/08/23 09:41:44;;;;;;;1.33;1.23;;;34.10;99.90;;;36.59;41.33;95541.69;619262;222;42986;-71
2022/08/23 09:44:31;;;;;;;2.40;1.15;;;34.00;99.90;;;36.41;38.42;95541.59;647509;216;31773;-71
2022/08/23 09:47:14;;;;;;;5.18;1.50;;;33.80;99.90;;;36.97;40.91;95536.56;618837;225;31888;-71
2022/08/23 09:49:55;;;;;;;2.05;1.30;;;34.50;99.90;;;35.85;39.64;95538.83;645618;212;31565;-71
2022/08/23 09:52:40;;;;;;;2.70;1.00;;;33.60;99.90;;;36.11;40.91;95540.83;646645;216;31861;-71
2022/08/23 09:55:30;;;;;;;3.20;1.33;;;33.70;99.90;;;36.64;36.99;95533.50;646619;212;31737;-71
2022/08/23 09:58:17;;;;;;;1.30;1.20;;;34.30;99.90;;;37.81;36.47;95534.15;619019;225;32082;-72
2022/08/23 10:03:37;;;;;;;1.40;1.30;;;33.80;99.90;;;37.73;34.56;95526.70;647411;216;31577;-72
2022/08/23 10:06:29;;;;;;;1.50;1.40;;;34.80;99.90;;;35.93;34.75;95535.61;646788;216;32226;-72
2022/08/23 10:09:25;;;;;;;1.40;1.30;;;32.30;99.90;;;36.20;35.95;95532.67;645336;216;32283;-71
2022/08/23 10:12:07;;;;;;;1.50;1.40;;;32.30;99.90;;;36.54;33.57;95531.89;646162;216;31630;-71
2022/08/23 10:14:48;;;;;;;1.10;1.00;;;32.90;99.90;;;36.29;32.57;95530.91;643203;215;31559;-70
2022/08/23 10:19:44;;;;;;;2.85;1.08;;;32.80;99.90;;;36.96;32.79;95535.01;646615;216;31588;-71
2022/08/23 10:22:26;;;;;;;1.10;1.00;;;33.50;99.90;;;37.69;32.21;95530.20;647022;216;31895;-71
2022/08/23 10:25:32;;;;;;;1.40;1.17;;;33.30;1.00;;;37.48;32.61;95525.33;645345;212;31515;-71
2022/08/23 10:35:52;;;;;;;1.70;1.30;;;32.90;99.90;;;37.63;31.79;95521.36;645971;216;32554;-71
2022/08/23 10:38:37;;;;;;;1.30;1.20;;;33.50;99.90;;;39.14;30.47;95514.63;646442;213;31736;-71
2022/08/23 10:46:59;;;;;;;1.98;1.30;;;32.60;99.90;;;37.53;31.97;95510.38;645875;216;32161;-72
2022/08/23 10:52:16;;;;;;;2.00;1.10;;;34.00;99.90;;;39.13;30.54;95506.03;646341;215;31557;-69
2022/08/23 10:55:05;;;;;;;1.30;1.20;;;34.90;99.90;;;37.44;31.58;95505.63;646305;212;31550;-71
2022/08/23 10:57:42;;;;;;;1.70;1.43;;;33.70;99.90;;;36.83;30.60;95520.52;644593;216;32112;-71
2022/08/23 11:03:50;;;;;;;2.17;1.50;;;33.40;99.90;;;38.50;30.51;95502.53;646662;216;31643;-71
2022/08/23 11:06:47;;;;;;;2.00;1.00;;;34.70;99.90;;;40.59;30.07;95501.66;647625;216;31516;-71
2022/08/23 11:09:32;;;;;;;1.45;1.00;;;35.80;99.90;;;38.75;29.09;95504.03;646227;216;31494;-71
2022/08/23 11:12:14;;;;;;;1.80;1.20;;;33.70;99.90;;;39.24;28.05;95503.10;646184;216;31637;-71
2022/08/23 11:14:58;;;;;;;1.00;1.00;;;34.10;1.00;;;37.17;28.83;95506.41;645950;216;31725;-70
2022/08/23 11:20:58;;;;;;;1.30;1.20;;;33.20;99.90;;;39.89;27.88;95497.92;647805;216;31620;-70
2022/08/23 11:23:46;;;;;;;1.60;1.20;;;34.50;1.00;;;38.40;28.02;95494.50;646608;216;31501;-72
2022/08/23 11:29:28;;;;;;;0.98;0.98;;;33.20;99.90;;;38.60;29.12;95495.44;646128;216;32184;-72
2022/08/23 11:32:30;;;;;;;3.15;1.02;;;34.00;99.90;;;37.80;28.03;95502.58;646802;216;31566;-70
2022/08/23 11:35:51;;;;;;;1.17;1.00;;;32.80;99.90;;;36.15;30.01;95507.17;648056;216;31597;-72
2022/08/23 11:41:23;;;;;;;1.50;1.00;;;33.20;99.90;;;37.93;27.75;95494.27;646639;216;31594;-73
2022/08/23 11:44:32;;;;;;;1.10;1.00;;;33.60;99.90;;;39.72;26.78;95491.38;645490;216;31480;-70
2022/08/23 11:47:14;;;;;;;1.33;1.00;;;33.60;99.90;;;38.90;26.93;95490.69;645703;216;31542;-72
2022/08/23 11:50:02;;;;;;;1.30;1.20;;;34.00;99.90;;;39.81;27.07;95492.19;647000;216;31783;-71
2022/08/23 11:58:27;;;;;;;1.02;0.80;;;33.00;99.90;;;38.89;28.28;95495.34;645256;216;31754;-73
2022/08/23 12:01:08;;;;;;;1.00;0.90;;;33.80;99.90;;;42.22;25.68;95485.87;646906;212;31578;-72
2022/08/23 12:06:45;;;;;;;0.85;0.85;;;36.00;99.90;;;39.58;27.31;95490.05;618968;226;42540;-72
2022/08/23 12:09:50;;;;;;;1.60;1.00;;;34.30;99.90;;;40.93;26.50;95488.76;645801;216;32106;-71
2022/08/23 12:12:34;;;;;;;1.05;1.05;;;34.90;99.90;;;38.66;27.05;95494.69;646754;212;31536;-71
2022/08/23 12:15:16;;;;;;;1.50;1.00;;;33.90;99.90;;;42.16;25.64;95489.69;643062;216;32249;-70
2022/08/23 12:17:58;;;;;;;1.65;1.30;;;34.50;65.00;;;39.57;25.99;95494.05;646299;212;31571;-71
2022/08/23 12:23:14;;;;;;;1.50;0.83;;;33.90;99.90;;;39.54;26.53;95490.68;645988;216;42710;-70
2022/08/23 12:25:59;;;;;;;3.30;1.50;;;34.20;1.00;;;38.41;26.41;95495.78;646513;212;31834;-72
2022/08/23 12:28:41;;;;;;;1.10;1.10;;;32.90;99.90;;;39.56;24.99;95485.55;645204;215;33689;-73
2022/08/23 12:31:35;;;;;;;0.80;0.80;;;32.70;99.90;;;39.30;26.48;95485.41;647662;216;31456;-71
2022/08/23 12:35:59;;;;;;;3.58;1.20;;;33.80;92.30;;;41.25;26.12;95484.62;646189;216;31597;-72
2022/08/23 12:39:05;;;;;;;1.40;1.30;;;35.40;99.90;;;40.70;26.12;95493.34;645986;212;31588;-72
2022/08/23 12:41:54;;;;;;;1.43;1.30;;;34.90;99.90;;;40.03;25.58;95491.48;645944;216;31525;-70
2022/08/23 12:44:36;;;;;;;2.70;1.10;;;33.50;99.90;;;39.55;26.74;95487.23;645414;216;31526;-70
2022/08/23 12:47:18;;;;;;;1.30;1.20;;;32.90;1.40;;;38.85;26.85;95492.64;646527;216;31532;-72
2022/08/23 12:50:04;;;;;;;1.75;1.40;;;33.50;99.90;;;38.96;26.88;95489.20;646373;216;31597;-69
2022/08/23 12:52:45;;;;;;;1.40;1.30;;;32.90;1.00;;;39.42;26.60;95481.58;646369;215;32090;-70
2022/08/23 12:55:30;;;;;;;2.17;1.27;;;32.70;99.90;;;37.81;28.46;95485.83;646367;216;31756;-72
2022/08/23 12:58:12;;;;;;;1.27;1.17;;;32.40;99.90;;;37.89;28.13;95485.57;645019;212;31590;-72
2022/08/23 13:00:56;;;;;;;1.40;1.30;;;32.90;1.40;;;37.92;28.02;95476.81;646477;216;31671;-69